Time;durP1;ratioP1;P1;durP2;ratioP2;P2;SDS_P1;SDS_P2;PMS_P1;PMS_P2;Temp;Humidity;BMP_temperature;BMP_pressure;BME280_temperature;BME280_humidity;BME280_pressure;Samples;Min_cycle;Max_cycle;Signal;HPM_P1;HPM_P2
2022/09/16 00:01:18;;;;;;;1999.90;999.90;;;17.90;55.50;;;;;;4981039;28;20202;-69
2022/09/16 00:03:44;;;;;;;1999.90;999.90;;;17.80;54.10;;;;;;4990263;28;20170;-68
2022/09/16 00:06:19;;;;;;;1999.90;999.90;;;18.00;54.10;;;;;;4984320;28;20804;-68
2022/09/16 00:08:45;;;;;;;1999.90;999.90;;;18.00;54.50;;;;;;4984505;28;20947;-69
2022/09/16 00:11:11;;;;;;;1999.90;999.90;;;17.90;54.20;;;;;;4987448;28;20450;-69
2022/09/16 00:13:37;;;;;;;1999.90;999.90;;;18.00;55.00;;;;;;4981034;28;20468;-68
2022/09/16 00:16:13;;;;;;;1999.90;999.90;;;17.90;54.50;;;;;;4989202;28;20920;-68
2022/09/16 00:18:38;;;;;;;1999.90;999.90;;;17.90;54.50;;;;;;4995081;28;20200;-68
2022/09/16 00:21:08;;;;;;;1999.90;999.90;;;18.00;54.30;;;;;;4993007;28;20960;-68
2022/09/16 00:23:33;;;;;;;1999.90;999.90;;;18.00;54.50;;;;;;4987342;28;20193;-69
2022/09/16 00:25:59;;;;;;;1999.90;999.90;;;18.10;55.40;;;;;;4994643;28;20436;-68
2022/09/16 00:28:25;;;;;;;1999.90;999.90;;;18.10;54.50;;;;;;4994189;28;20327;-68
2022/09/16 00:30:51;;;;;;;1999.90;999.90;;;18.10;54.50;;;;;;4993915;28;20212;-68
2022/09/16 00:33:17;;;;;;;1999.90;999.90;;;18.10;54.60;;;;;;4992459;28;20264;-68
2022/09/16 00:35:42;;;;;;;1999.90;999.90;;;18.10;55.40;;;;;;4986370;28;20189;-68
2022/09/16 00:38:08;;;;;;;1999.90;999.90;;;18.00;55.80;;;;;;4994729;28;20429;-69
2022/09/16 00:40:34;;;;;;;1999.90;999.90;;;18.10;55.20;;;;;;4989598;28;20205;-69
2022/09/16 00:42:59;;;;;;;1999.90;999.90;;;18.10;54.50;;;;;;4986748;28;20185;-68
2022/09/16 00:45:30;;;;;;;1999.90;999.90;;;18.00;54.80;;;;;;4991693;28;20809;-68
2022/09/16 00:48:05;;;;;;;1999.90;999.90;;;18.00;56.00;;;;;;4989724;28;20170;-69
2022/09/16 00:50:56;;;;;;;1999.90;999.90;;;18.00;55.40;;;;;;4993295;28;20480;-69
2022/09/16 00:53:26;;;;;;;1999.90;999.90;;;18.00;56.00;;;;;;4994259;28;20439;-68
2022/09/16 00:55:55;;;;;;;1999.90;999.90;;;18.00;55.40;;;;;;4994813;28;20429;-68
2022/09/16 00:58:49;;;;;;;1999.90;999.90;;;18.10;54.90;;;;;;4986123;28;20840;-68
2022/09/16 01:01:15;;;;;;;1999.90;999.90;;;18.10;55.40;;;;;;4992327;28;20445;-68
2022/09/16 01:03:49;;;;;;;1999.90;999.90;;;17.90;56.00;;;;;;4987087;28;20425;-68
2022/09/16 01:06:17;;;;;;;1999.90;999.90;;;18.00;54.80;;;;;;4992692;28;20662;-68
2022/09/16 01:08:44;;;;;;;1999.90;999.90;;;18.10;53.90;;;;;;4988833;28;20563;-68
2022/09/16 01:11:10;;;;;;;1999.90;999.90;;;18.20;52.80;;;;;;4990074;28;20456;-70
2022/09/16 01:13:37;;;;;;;1999.90;999.90;;;18.20;52.90;;;;;;4986113;28;20939;-69
2022/09/16 01:16:10;;;;;;;1999.90;999.90;;;18.10;52.60;;;;;;4981491;28;20439;-68
2022/09/16 01:18:38;;;;;;;1999.90;999.90;;;17.90;53.40;;;;;;4993242;28;20518;-67
2022/09/16 01:21:37;;;;;;;1999.90;999.90;;;17.80;54.00;;;;;;4991768;28;20457;-68
2022/09/16 01:24:30;;;;;;;1999.90;999.90;;;17.70;54.50;;;;;;4991158;28;20440;-68
2022/09/16 01:27:12;;;;;;;1999.90;999.90;;;17.80;52.70;;;;;;4994194;28;20441;-68
2022/09/16 01:30:04;;;;;;;1999.90;999.90;;;17.70;53.10;;;;;;4990651;28;20475;-68
2022/09/16 01:32:48;;;;;;;1999.90;999.90;;;17.80;52.40;;;;;;4985405;28;20551;-67
2022/09/16 01:35:25;;;;;;;1999.90;999.90;;;17.60;53.10;;;;;;4993893;28;20504;-68
2022/09/16 01:38:16;;;;;;;1999.90;999.90;;;17.50;53.40;;;;;;4990929;28;20504;-68
2022/09/16 01:41:05;;;;;;;1999.90;999.90;;;17.50;53.80;;;;;;4988502;28;20529;-68
2022/09/16 01:43:49;;;;;;;1999.90;999.90;;;17.70;53.30;;;;;;4991035;28;20445;-68
2022/09/16 01:46:45;;;;;;;1999.90;999.90;;;17.60;53.40;;;;;;4982674;28;20446;-67
2022/09/16 01:49:49;;;;;;;1999.90;999.90;;;17.70;52.80;;;;;;4992402;28;20885;-68
2022/09/16 01:52:29;;;;;;;1999.90;999.90;;;17.60;54.20;;;;;;4989602;28;20456;-68
2022/09/16 01:55:05;;;;;;;1999.90;999.90;;;17.50;53.60;;;;;;4988968;28;20563;-68
2022/09/16 01:57:51;;;;;;;1999.90;999.90;;;17.50;53.30;;;;;;4992366;28;20997;-68
2022/09/16 02:00:17;;;;;;;1999.90;999.90;;;17.40;54.40;;;;;;4990876;28;20511;-68
2022/09/16 02:03:11;;;;;;;1999.90;999.90;;;17.30;53.50;;;;;;4985719;28;20443;-68
2022/09/16 02:05:56;;;;;;;1999.90;999.90;;;17.30;54.00;;;;;;4986983;28;20197;-67
2022/09/16 02:08:31;;;;;;;1999.90;999.90;;;17.10;55.30;;;;;;4989247;28;20509;-68
2022/09/16 02:10:59;;;;;;;1.50;1.10;;;17.10;55.20;;;;;;4989816;28;20502;-68
2022/09/16 02:13:39;;;;;;;258.50;27.47;;;17.20;55.30;;;;;;4987623;28;21069;-69
2022/09/16 02:16:11;;;;;;;1.50;1.10;;;17.30;55.20;;;;;;4984892;28;20780;-68
2022/09/16 02:18:40;;;;;;;1.60;1.10;;;17.30;55.40;;;;;;4991503;28;20433;-68
2022/09/16 02:21:09;;;;;;;1.80;1.00;;;17.30;55.40;;;;;;4983976;28;20491;-68
2022/09/16 02:23:40;;;;;;;2.27;1.20;;;17.30;55.70;;;;;;4991900;28;20460;-68
2022/09/16 02:26:10;;;;;;;3.20;1.10;;;17.30;55.40;;;;;;4990922;28;20798;-68
2022/09/16 02:28:41;;;;;;;4.47;1.10;;;17.30;55.00;;;;;;4992617;28;20442;-68
2022/09/16 02:31:10;;;;;;;673.50;132.57;;;17.30;55.40;;;;;;4985494;28;20507;-68
2022/09/16 02:33:59;;;;;;;644.00;150.13;;;17.20;55.30;;;;;;4986471;28;20612;-68
2022/09/16 02:36:26;;;;;;;184.43;34.97;;;17.30;55.30;;;;;;4987611;28;20925;-69
2022/09/16 02:39:00;;;;;;;3.90;1.10;;;17.20;56.00;;;;;;4985702;28;20514;-68
2022/09/16 02:41:26;;;;;;;687.80;207.73;;;17.20;55.10;;;;;;4989151;28;20460;-68
2022/09/16 02:43:52;;;;;;;813.90;231.47;;;17.20;55.00;;;;;;4991300;28;20440;-68
2022/09/16 02:46:24;;;;;;;607.43;234.93;;;17.20;54.40;;;;;;4990633;28;20186;-68
2022/09/16 02:49:14;;;;;;;7.13;1.00;;;17.20;53.70;;;;;;4983848;28;20436;-68
2022/09/16 02:52:02;;;;;;;293.97;127.70;;;17.30;53.90;;;;;;4986369;28;21132;-68
2022/09/16 02:54:35;;;;;;;208.27;61.83;;;17.30;53.90;;;;;;4981250;28;20468;-68
2022/09/16 02:57:01;;;;;;;216.37;130.70;;;17.30;54.20;;;;;;4982820;28;20469;-68
2022/09/16 02:59:27;;;;;;;8.20;3.47;;;17.30;55.40;;;;;;4991046;28;20511;-68
2022/09/16 03:01:53;;;;;;;4.53;1.20;;;17.20;55.00;;;;;;4993126;28;20456;-68
2022/09/16 03:04:20;;;;;;;338.43;213.63;;;17.20;54.10;;;;;;4985074;28;20436;-68
2022/09/16 03:06:46;;;;;;;270.40;78.67;;;17.20;55.30;;;;;;4992164;28;20498;-68
2022/09/16 03:09:14;;;;;;;280.77;156.57;;;17.10;55.20;;;;;;4988834;28;20475;-68
2022/09/16 03:12:17;;;;;;;146.77;57.60;;;17.10;55.20;;;;;;4991807;28;20526;-68
2022/09/16 03:14:59;;;;;;;30.43;1.40;;;17.10;57.40;;;;;;4980440;28;20438;-68
2022/09/16 03:17:40;;;;;;;74.70;19.73;;;17.20;55.90;;;;;;4991673;28;20840;-68
2022/09/16 03:20:38;;;;;;;3.90;1.10;;;17.30;55.80;;;;;;4991601;28;20526;-68
2022/09/16 03:23:16;;;;;;;2.50;1.00;;;17.40;55.40;;;;;;4990379;28;20437;-68
2022/09/16 03:26:09;;;;;;;2.20;1.00;;;17.60;54.30;;;;;;4992667;28;20454;-68
2022/09/16 03:29:03;;;;;;;2.70;1.10;;;17.70;52.90;;;;;;4983892;28;20440;-68
2022/09/16 03:31:47;;;;;;;3.23;1.13;;;17.60;53.60;;;;;;4987319;28;20989;-68
2022/09/16 03:34:22;;;;;;;2.90;1.00;;;17.60;53.60;;;;;;4988014;28;20442;-68
2022/09/16 03:37:00;;;;;;;2.60;1.10;;;17.60;53.90;;;;;;4985609;28;20442;-68
2022/09/16 03:39:25;;;;;;;3.33;1.10;;;17.50;53.90;;;;;;4982045;28;20495;-68
2022/09/16 03:41:51;;;;;;;3.50;1.10;;;17.30;54.70;;;;;;4989741;28;20472;-68
2022/09/16 03:44:17;;;;;;;4.00;1.10;;;17.30;55.70;;;;;;4991248;28;20228;-68
2022/09/16 03:46:42;;;;;;;3.50;1.10;;;17.50;55.20;;;;;;4991569;28;20178;-68
2022/09/16 03:49:09;;;;;;;3.77;1.10;;;17.30;56.00;;;;;;4990830;28;20220;-68
2022/09/16 03:51:35;;;;;;;4.10;1.20;;;17.40;55.40;;;;;;4991794;28;20232;-68
2022/09/16 03:54:00;;;;;;;4.20;1.10;;;17.50;55.40;;;;;;4988634;28;20945;-68
2022/09/16 03:56:26;;;;;;;4.20;1.20;;;17.60;54.30;;;;;;4984182;28;20181;-69
2022/09/16 03:58:52;;;;;;;707.03;311.87;;;17.70;52.70;;;;;;4990380;28;20192;-68
2022/09/16 04:01:17;;;;;;;4.80;1.00;;;17.80;53.60;;;;;;4991682;28;20221;-68
2022/09/16 04:03:43;;;;;;;55.20;1.37;;;17.70;54.50;;;;;;4990314;28;20230;-68
2022/09/16 04:06:08;;;;;;;387.43;275.80;;;17.70;54.10;;;;;;4991792;28;20272;-68
2022/09/16 04:08:34;;;;;;;352.40;195.73;;;17.70;54.30;;;;;;4991067;28;20189;-68
2022/09/16 04:11:04;;;;;;;1.70;1.10;;;17.80;53.70;;;;;;4982393;28;20612;-68
2022/09/16 04:13:31;;;;;;;1.70;1.10;;;17.80;54.90;;;;;;4976478;28;20812;-68
2022/09/16 04:15:57;;;;;;;1.70;1.10;;;17.70;55.40;;;;;;4990096;28;20944;-68
2022/09/16 04:18:22;;;;;;;5.03;1.10;;;17.70;55.70;;;;;;4989691;28;20436;-68
2022/09/16 04:20:48;;;;;;;1.70;1.20;;;17.60;55.60;;;;;;4989526;28;20460;-68
2022/09/16 04:23:13;;;;;;;1.70;1.10;;;17.60;55.50;;;;;;4989162;28;20679;-68
2022/09/16 04:25:39;;;;;;;1.70;1.00;;;17.70;55.50;;;;;;4983682;28;20186;-68
2022/09/16 04:28:06;;;;;;;1.70;1.13;;;17.60;55.60;;;;;;4989697;28;20626;-68
2022/09/16 04:30:32;;;;;;;1.70;1.20;;;17.70;54.90;;;;;;4984460;28;20465;-68
2022/09/16 04:32:58;;;;;;;1.70;1.10;;;17.80;55.80;;;;;;4984613;28;20488;-68
2022/09/16 04:35:24;;;;;;;1.60;1.10;;;17.80;55.10;;;;;;4987607;28;20803;-68
2022/09/16 04:37:50;;;;;;;1.63;1.10;;;17.90;54.60;;;;;;4986697;28;20269;-68
2022/09/16 04:40:16;;;;;;;1.63;1.10;;;17.80;54.90;;;;;;4982885;28;20964;-68
2022/09/16 04:42:49;;;;;;;1.60;1.10;;;17.90;55.90;;;;;;4987681;28;20447;-68
2022/09/16 04:45:14;;;;;;;1.63;1.10;;;17.80;55.80;;;;;;4982382;28;20448;-68
2022/09/16 04:47:40;;;;;;;1.70;1.10;;;17.70;55.70;;;;;;4988087;28;20499;-68
2022/09/16 04:50:06;;;;;;;1.70;1.10;;;17.80;55.80;;;;;;4990950;28;20932;-69
2022/09/16 04:52:32;;;;;;;1.63;1.10;;;17.80;55.80;;;;;;4982587;28;20540;-68
2022/09/16 04:54:58;;;;;;;1.80;1.20;;;17.80;56.10;;;;;;4985120;28;20437;-69
2022/09/16 04:57:23;;;;;;;1.70;1.20;;;17.90;56.80;;;;;;4996920;28;20468;-68
2022/09/16 04:59:49;;;;;;;1.70;1.10;;;17.90;56.70;;;;;;4990633;28;20194;-68
2022/09/16 05:02:14;;;;;;;1.70;1.10;;;18.00;56.00;;;;;;4989349;28;20717;-69
2022/09/16 05:04:40;;;;;;;1.60;1.10;;;18.00;56.00;;;;;;4989933;28;20206;-69
2022/09/16 05:07:07;;;;;;;1.60;1.00;;;17.90;55.90;;;;;;4990404;28;20209;-68
2022/09/16 05:09:32;;;;;;;1.60;1.00;;;18.00;56.00;;;;;;4987942;28;20202;-68
2022/09/16 05:11:58;;;;;;;1.60;1.00;;;18.10;55.00;;;;;;4993737;28;20806;-68
2022/09/16 05:14:23;;;;;;;1.70;1.20;;;18.10;55.80;;;;;;4985411;28;20297;-68
2022/09/16 05:16:49;;;;;;;1.60;1.10;;;18.00;56.00;;;;;;4988950;28;20198;-68
2022/09/16 05:19:14;;;;;;;1.80;1.30;;;18.20;54.40;;;;;;4983935;28;20195;-68
2022/09/16 05:21:41;;;;;;;1.70;1.20;;;18.30;52.80;;;;;;4992519;28;20209;-68
2022/09/16 05:24:09;;;;;;;1.70;1.20;;;18.20;53.80;;;;;;4987188;28;20186;-68
2022/09/16 05:26:37;;;;;;;1.70;1.10;;;18.30;54.20;;;;;;4992009;28;20417;-68
2022/09/16 05:29:05;;;;;;;1.70;1.20;;;18.20;54.80;;;;;;4992075;28;20544;-68
2022/09/16 05:31:35;;;;;;;1.70;1.13;;;18.20;54.50;;;;;;4993058;28;20467;-69
2022/09/16 05:34:12;;;;;;;1.60;1.03;;;18.10;54.30;;;;;;4994238;28;20421;-68
2022/09/16 05:36:39;;;;;;;1.70;1.10;;;18.20;55.20;;;;;;4995150;28;20410;-68
2022/09/16 05:39:05;;;;;;;1.70;1.20;;;18.10;55.30;;;;;;4995032;28;20858;-70
2022/09/16 05:41:31;;;;;;;1.70;1.10;;;18.00;54.10;;;;;;4991898;28;20986;-68
2022/09/16 05:43:59;;;;;;;1.70;1.17;;;18.00;55.10;;;;;;4986572;28;20445;-69
2022/09/16 05:46:25;;;;;;;1.70;1.10;;;18.00;54.30;;;;;;4986867;28;20265;-69
2022/09/16 05:48:51;;;;;;;1.70;1.10;;;17.90;54.70;;;;;;4989672;28;20465;-68
2022/09/16 05:51:19;;;;;;;1.73;1.20;;;18.10;55.10;;;;;;4993610;28;20488;-68
2022/09/16 05:53:47;;;;;;;1.70;1.10;;;18.10;54.50;;;;;;4993774;28;20704;-69
2022/09/16 05:56:16;;;;;;;1.70;1.10;;;18.10;54.70;;;;;;4992845;28;20859;-70
2022/09/16 05:58:42;;;;;;;1.60;1.10;;;18.10;55.40;;;;;;4992759;28;20922;-68
2022/09/16 06:01:16;;;;;;;1.60;1.10;;;18.20;56.10;;;;;;4982526;28;20539;-69
2022/09/16 06:03:43;;;;;;;1.60;1.00;;;18.20;54.40;;;;;;4981723;28;20807;-69
2022/09/16 06:06:36;;;;;;;1.70;1.10;;;18.00;54.70;;;;;;4983215;28;20446;-69
2022/09/16 06:09:06;;;;;;;1.70;1.20;;;18.00;56.00;;;;;;4988842;28;20457;-69
2022/09/16 06:11:35;;;;;;;1.70;1.10;;;18.00;56.00;;;;;;4984516;28;20452;-69
2022/09/16 06:14:01;;;;;;;1.70;1.10;;;18.00;56.00;;;;;;4992080;28;21189;-68
2022/09/16 06:16:31;;;;;;;1.60;1.10;;;18.10;56.10;;;;;;4986119;28;20430;-69
2022/09/16 06:18:56;;;;;;;1.57;1.00;;;18.00;55.30;;;;;;4990386;28;20646;-68
2022/09/16 06:21:22;;;;;;;1.60;1.00;;;17.90;56.10;;;;;;4994238;28;20532;-69
2022/09/16 06:23:48;;;;;;;1.60;1.13;;;18.00;56.00;;;;;;4993331;28;20182;-69
2022/09/16 06:26:17;;;;;;;1.70;1.10;;;18.10;56.50;;;;;;4993903;28;20406;-69
2022/09/16 06:28:43;;;;;;;1.70;1.10;;;18.00;56.00;;;;;;4993833;28;20173;-69
2022/09/16 06:31:14;;;;;;;1.70;1.20;;;17.70;56.80;;;;;;4993337;28;20461;-69
2022/09/16 06:33:40;;;;;;;1.70;1.10;;;17.30;61.60;;;;;;4993248;28;20440;-69
2022/09/16 06:36:09;;;;;;;1.60;1.10;;;17.60;60.70;;;;;;4993375;28;20931;-69
2022/09/16 06:38:35;;;;;;;1.60;1.00;;;17.90;60.50;;;;;;4993746;28;20440;-69
2022/09/16 06:41:03;;;;;;;1.60;1.10;;;18.00;58.60;;;;;;4992568;28;20996;-69
2022/09/16 06:43:29;;;;;;;1.63;1.10;;;17.80;56.60;;;;;;4993355;28;20258;-69
2022/09/16 06:45:59;;;;;;;1.60;1.10;;;18.20;56.20;;;;;;4993444;28;20501;-69
2022/09/16 06:48:25;;;;;;;1.60;1.10;;;18.00;56.90;;;;;;4993650;28;20225;-69
2022/09/16 06:51:09;;;;;;;1.60;1.10;;;18.10;57.20;;;;;;4992389;28;20481;-69
2022/09/16 06:53:35;;;;;;;1.60;1.10;;;18.00;55.30;;;;;;4973736;28;20469;-69
2022/09/16 06:56:04;;;;;;;1.60;1.10;;;17.60;56.70;;;;;;4976453;28;20413;-69
2022/09/16 06:58:34;;;;;;;1.70;1.10;;;16.90;58.30;;;;;;4992773;28;20261;-69
2022/09/16 07:01:08;;;;;;;1.70;1.10;;;16.90;63.40;;;;;;4992657;28;20440;-69
2022/09/16 07:03:37;;;;;;;1.60;1.10;;;17.30;59.50;;;;;;4993925;28;20433;-69
2022/09/16 07:06:03;;;;;;;1.70;1.13;;;17.50;58.60;;;;;;4993134;28;20421;-69
2022/09/16 07:08:31;;;;;;;1.70;1.20;;;17.60;56.90;;;;;;4992769;28;21018;-69
2022/09/16 07:11:03;;;;;;;1.70;1.10;;;17.60;56.30;;;;;;4992519;28;20497;-69
2022/09/16 07:13:29;;;;;;;1.63;1.00;;;17.70;55.80;;;;;;4992766;28;20780;-69
2022/09/16 07:15:59;;;;;;;1.60;1.07;;;17.60;55.60;;;;;;4992871;28;20405;-68
2022/09/16 07:18:25;;;;;;;1.70;1.10;;;17.70;53.20;;;;;;4992646;28;20428;-69
2022/09/16 07:20:50;;;;;;;1.70;1.10;;;17.70;54.60;;;;;;4991764;28;20829;-69
2022/09/16 07:23:16;;;;;;;1.70;1.10;;;17.80;54.80;;;;;;4992071;28;20209;-69
2022/09/16 07:25:41;;;;;;;1.70;1.10;;;17.80;55.20;;;;;;4993009;28;20181;-69
2022/09/16 07:28:07;;;;;;;1.70;1.17;;;17.80;53.70;;;;;;4992205;28;20258;-69
2022/09/16 07:30:33;;;;;;;1.70;1.10;;;17.80;54.80;;;;;;4992419;28;20218;-69
2022/09/16 07:32:59;;;;;;;1.60;1.10;;;17.80;53.90;;;;;;4992601;28;20253;-69
2022/09/16 07:35:25;;;;;;;1.63;1.00;;;17.30;53.20;;;;;;4992395;28;20265;-69
2022/09/16 07:37:50;;;;;;;1.70;1.10;;;17.20;55.30;;;;;;4991115;28;20500;-69
2022/09/16 07:40:16;;;;;;;1.80;1.20;;;17.40;54.20;;;;;;4991976;28;20480;-69
2022/09/16 07:42:42;;;;;;;1.80;1.20;;;16.90;57.10;;;;;;4991785;28;20178;-69
2022/09/16 07:45:08;;;;;;;1.80;1.10;;;17.20;56.10;;;;;;4992190;28;20184;-69
2022/09/16 07:47:33;;;;;;;1.70;1.10;;;17.30;56.70;;;;;;4992419;28;20174;-69
2022/09/16 07:49:59;;;;;;;1.70;1.10;;;17.20;53.10;;;;;;4991756;28;20842;-69
2022/09/16 07:52:28;;;;;;;1.60;1.00;;;17.00;57.50;;;;;;4991806;28;20733;-69
2022/09/16 07:54:54;;;;;;;1.70;1.00;;;17.20;57.10;;;;;;4992413;28;20200;-69
2022/09/16 07:57:21;;;;;;;1.70;1.10;;;17.30;55.00;;;;;;4992131;28;20496;-69
2022/09/16 07:59:47;;;;;;;1.70;1.00;;;17.20;55.10;;;;;;4991848;28;20408;-69
2022/09/16 08:02:13;;;;;;;1.60;1.00;;;17.20;56.40;;;;;;4972345;28;20943;-69
2022/09/16 08:04:39;;;;;;;1.70;1.10;;;17.30;56.90;;;;;;4972404;28;20420;-69
2022/09/16 08:07:05;;;;;;;1.70;1.13;;;17.40;55.40;;;;;;4972775;28;20410;-69
2022/09/16 08:09:31;;;;;;;1.60;1.00;;;17.60;54.00;;;;;;4972701;28;20218;-69
2022/09/16 08:11:57;;;;;;;1.70;1.10;;;17.60;54.20;;;;;;4985968;28;20964;-69
2022/09/16 08:14:23;;;;;;;1.70;1.20;;;17.70;54.50;;;;;;4991820;28;20252;-69
2022/09/16 08:16:52;;;;;;;1.70;1.10;;;17.60;55.30;;;;;;4992268;28;20406;-69
2022/09/16 08:19:19;;;;;;;1.70;1.10;;;17.60;54.00;;;;;;4992109;28;20533;-69
2022/09/16 08:21:44;;;;;;;1.70;1.13;;;17.50;55.50;;;;;;4991321;28;20445;-69
2022/09/16 08:24:10;;;;;;;1.70;1.10;;;17.60;54.70;;;;;;4992172;28;20409;-69
2022/09/16 08:26:36;;;;;;;1.70;1.10;;;17.50;54.80;;;;;;4992478;28;20173;-69
2022/09/16 08:29:02;;;;;;;1.70;1.10;;;17.50;54.30;;;;;;4992094;28;20186;-69
2022/09/16 08:31:28;;;;;;;1.67;1.00;;;17.60;54.10;;;;;;4990845;28;20205;-69
2022/09/16 08:33:53;;;;;;;1.60;1.00;;;17.60;52.30;;;;;;4991665;28;20409;-69
2022/09/16 08:36:21;;;;;;;1.70;1.10;;;17.60;52.80;;;;;;4994594;28;20252;-69
2022/09/16 08:38:50;;;;;;;1.60;1.00;;;17.50;52.60;;;;;;4995993;28;20174;-69
2022/09/16 08:41:35;;;;;;;1.70;1.10;;;17.40;54.80;;;;;;4995259;28;20934;-69
2022/09/16 08:44:41;;;;;;;1.80;1.20;;;17.50;54.40;;;;;;4995167;28;20519;-69
2022/09/16 08:47:30;;;;;;;1.77;1.20;;;17.50;54.50;;;;;;4995693;28;20412;-68
2022/09/16 08:49:58;;;;;;;1.63;1.10;;;17.50;53.90;;;;;;4995114;28;20464;-69
2022/09/16 08:52:34;;;;;;;1.67;1.10;;;17.40;54.60;;;;;;4995148;28;20397;-69
2022/09/16 08:55:17;;;;;;;1.70;1.03;;;17.30;53.80;;;;;;4994891;28;20421;-69
2022/09/16 08:58:05;;;;;;;1.70;1.10;;;16.70;52.70;;;;;;4995371;28;20773;-69
2022/09/16 09:00:31;;;;;;;1.70;1.10;;;16.40;55.60;;;;;;4995229;28;20483;-69
2022/09/16 09:03:21;;;;;;;1.70;1.10;;;16.90;57.10;;;;;;4995127;28;20416;-69
2022/09/16 09:05:52;;;;;;;1.70;1.10;;;17.10;57.00;;;;;;4995608;28;20953;-69
2022/09/16 09:08:32;;;;;;;1.80;1.17;;;17.30;54.70;;;;;;4995380;28;20480;-69
2022/09/16 09:11:23;;;;;;;1.70;1.20;;;17.50;54.70;;;;;;4994624;28;20491;-68
2022/09/16 09:14:09;;;;;;;1.67;1.07;;;17.60;55.70;;;;;;4994430;28;20448;-69
2022/09/16 09:17:28;;;;;;;1.70;1.10;;;17.70;54.50;;;;;;4975689;28;20399;-69
2022/09/16 09:20:00;;;;;;;1.70;1.10;;;17.70;53.20;;;;;;4972879;28;20434;-69
2022/09/16 09:22:49;;;;;;;1.70;1.10;;;17.90;53.20;;;;;;4972838;28;20501;-69
2022/09/16 09:25:30;;;;;;;1.70;1.00;;;17.80;52.00;;;;;;4972917;28;20418;-69
2022/09/16 09:28:23;;;;;;;1.70;1.10;;;17.80;51.90;;;;;;4973174;28;20424;-68
2022/09/16 09:31:16;;;;;;;1.70;1.10;;;17.90;52.80;;;;;;4985852;28;20977;-69
2022/09/16 09:34:23;;;;;;;1.70;1.10;;;17.90;52.20;;;;;;4974369;28;20556;-69
2022/09/16 09:36:56;;;;;;;1.60;1.00;;;17.90;51.90;;;;;;4953597;29;20415;-69
2022/09/16 09:39:45;;;;;;;1.70;1.10;;;18.00;52.20;;;;;;4986084;28;20436;-69
2022/09/16 09:42:33;;;;;;;1.70;1.10;;;17.90;49.90;;;;;;4991583;28;20504;-69
2022/09/16 09:45:24;;;;;;;1.70;1.13;;;17.60;50.70;;;;;;4991825;28;20971;-69
2022/09/16 09:48:16;;;;;;;1.70;1.03;;;17.40;50.20;;;;;;4974947;28;20425;-69
2022/09/16 09:50:44;;;;;;;1.70;1.10;;;17.20;50.40;;;;;;4993347;28;20483;-69
2022/09/16 09:53:10;;;;;;;1.80;1.10;;;17.30;50.80;;;;;;4989985;28;20445;-69
2022/09/16 09:55:39;;;;;;;1.87;1.20;;;17.30;50.20;;;;;;4977407;28;20553;-69
2022/09/16 09:58:36;;;;;;;1.70;1.10;;;17.40;51.30;;;;;;4985764;28;20531;-69
2022/09/16 10:01:01;;;;;;;1.70;1.10;;;17.80;49.80;;;;;;4990549;28;20528;-72
2022/09/16 10:03:28;;;;;;;1.63;1.00;;;17.80;49.60;;;;;;4994613;28;20932;-70
2022/09/16 10:05:54;;;;;;;1.80;1.10;;;17.60;49.10;;;;;;4993681;28;20178;-69
2022/09/16 10:08:20;;;;;;;1.70;1.10;;;17.60;50.80;;;;;;4986028;28;21793;-71
2022/09/16 10:10:56;;;;;;;1.87;1.20;;;17.50;51.30;;;;;;4993982;28;20673;-68
2022/09/16 10:13:24;;;;;;;1.80;1.17;;;17.50;48.90;;;;;;4993912;28;20221;-68
2022/09/16 10:15:53;;;;;;;1.80;1.20;;;17.80;49.10;;;;;;4993057;28;20419;-68
2022/09/16 10:18:24;;;;;;;1.80;1.10;;;17.60;48.70;;;;;;4991751;28;20431;-68
2022/09/16 10:21:02;;;;;;;1.70;1.10;;;17.80;49.60;;;;;;4981197;28;20474;-69
2022/09/16 10:23:27;;;;;;;1.70;1.10;;;18.10;48.00;;;;;;4974637;28;20770;-69
2022/09/16 10:26:25;;;;;;;1.70;1.07;;;17.80;48.40;;;;;;4974320;28;20426;-69
2022/09/16 10:28:54;;;;;;;1.80;1.13;;;17.70;49.10;;;;;;4991368;28;20664;-69
2022/09/16 10:31:20;;;;;;;1.77;1.10;;;17.80;48.20;;;;;;4993412;28;20449;-68
2022/09/16 10:33:46;;;;;;;1.80;1.20;;;18.00;49.00;;;;;;4991500;28;20938;-69
2022/09/16 10:36:21;;;;;;;1.90;1.20;;;18.30;47.10;;;;;;4997203;28;20429;-69
2022/09/16 10:38:55;;;;;;;1.73;1.00;;;18.70;47.10;;;;;;4993722;28;20905;-69
2022/09/16 10:41:33;;;;;;;1.77;1.10;;;19.00;44.60;;;;;;4982833;28;21235;-69
2022/09/16 10:44:05;;;;;;;1.70;1.10;;;19.00;43.60;;;;;;4989649;28;20439;-69
2022/09/16 10:46:31;;;;;;;1.80;1.10;;;19.00;43.90;;;;;;4981991;28;20445;-69
2022/09/16 10:49:07;;;;;;;1.80;1.10;;;19.10;45.70;;;;;;4990835;28;20428;-69
2022/09/16 10:51:33;;;;;;;1.90;1.17;;;18.80;48.70;;;;;;4992870;28;20568;-69
2022/09/16 10:54:01;;;;;;;1.80;1.17;;;18.80;46.30;;;;;;4993225;28;20411;-69
2022/09/16 10:56:30;;;;;;;1.80;1.10;;;18.10;47.00;;;;;;4990925;28;20519;-69
2022/09/16 10:59:05;;;;;;;1.80;1.10;;;18.20;49.00;;;;;;4988229;28;21105;-69
2022/09/16 11:01:56;;;;;;;1.70;1.00;;;18.20;49.10;;;;;;4973106;28;20945;-69
2022/09/16 11:04:34;;;;;;;1.80;1.00;;;17.70;47.70;;;;;;4969661;28;20426;-69
2022/09/16 11:07:07;;;;;;;1.80;1.10;;;17.50;50.70;;;;;;4980449;28;20646;-69
2022/09/16 11:10:02;;;;;;;1.80;1.10;;;17.50;52.10;;;;;;4984315;28;20475;-69
2022/09/16 11:12:48;;;;;;;1.80;1.10;;;17.60;50.80;;;;;;4984656;28;20496;-69
2022/09/16 11:15:46;;;;;;;1.80;1.10;;;17.60;48.30;;;;;;4984827;28;20822;-69
2022/09/16 11:18:30;;;;;;;1.80;1.10;;;17.70;49.30;;;;;;4981669;28;20939;-77
2022/09/16 11:21:16;;;;;;;1.80;1.10;;;17.60;52.00;;;;;;4984513;28;20891;-69
2022/09/16 11:24:06;;;;;;;1.80;1.10;;;18.00;50.10;;;;;;4974208;28;20429;-70
2022/09/16 11:26:46;;;;;;;1.87;1.10;;;17.70;52.30;;;;;;4981730;28;20520;-69
2022/09/16 11:29:18;;;;;;;1.77;1.10;;;18.00;51.30;;;;;;4992987;28;20416;-69
2022/09/16 11:32:16;;;;;;;1.90;1.10;;;17.40;52.40;;;;;;4991523;28;20442;-68
2022/09/16 11:35:16;;;;;;;1.90;1.10;;;16.70;53.40;;;;;;4984539;28;20467;-68
2022/09/16 11:38:15;;;;;;;1.80;1.00;;;16.60;59.30;;;;;;4988210;28;20812;-69
2022/09/16 11:40:56;;;;;;;1.80;1.10;;;16.50;58.10;;;;;;4992294;28;20479;-68
2022/09/16 11:43:27;;;;;;;1.80;1.10;;;16.40;60.80;;;;;;4990379;28;20524;-68
2022/09/16 11:46:22;;;;;;;1.77;1.10;;;17.50;55.50;;;;;;4985709;28;20427;-71
2022/09/16 11:48:56;;;;;;;1.80;1.10;;;17.20;53.60;;;;;;4986689;28;20490;-70
2022/09/16 11:52:00;;;;;;;1.80;1.10;;;17.40;55.40;;;;;;4991648;28;20959;-70
2022/09/16 11:55:02;;;;;;;2.00;1.20;;;17.60;54.20;;;;;;4989685;28;20561;-71
2022/09/16 11:57:37;;;;;;;1.80;1.10;;;18.20;50.10;;;;;;4992315;28;20404;-70
2022/09/16 12:00:09;;;;;;;1.70;1.00;;;17.80;51.90;;;;;;4992168;28;20432;-71
2022/09/16 12:02:47;;;;;;;1.80;1.10;;;17.80;50.80;;;;;;4990859;28;20441;-70
2022/09/16 12:05:21;;;;;;;1.80;1.00;;;17.70;50.40;;;;;;4984621;28;20502;-70
2022/09/16 12:08:01;;;;;;;1.80;1.10;;;17.60;51.90;;;;;;4981559;28;20492;-70
2022/09/16 12:10:35;;;;;;;1.80;1.10;;;18.30;49.00;;;;;;4986498;28;20472;-68
2022/09/16 12:13:14;;;;;;;1.80;1.10;;;18.80;48.30;;;;;;4987902;28;20441;-67
2022/09/16 12:15:49;;;;;;;1.83;1.20;;;18.90;45.80;;;;;;4981700;28;20440;-68
2022/09/16 12:18:21;;;;;;;1.80;1.10;;;18.40;44.40;;;;;;4990582;28;20477;-68
2022/09/16 12:20:54;;;;;;;1.80;1.10;;;17.50;51.30;;;;;;4983807;28;20449;-68
2022/09/16 12:23:24;;;;;;;1.70;1.10;;;17.60;51.70;;;;;;4988731;28;20794;-68
2022/09/16 12:26:07;;;;;;;1.90;1.10;;;17.20;53.50;;;;;;4988110;28;20437;-68
2022/09/16 12:28:58;;;;;;;1.80;1.10;;;17.00;51.80;;;;;;4986251;28;20444;-68
2022/09/16 12:31:46;;;;;;;1.80;1.10;;;17.60;50.90;;;;;;4991096;28;20491;-68
2022/09/16 12:34:27;;;;;;;1.80;1.07;;;17.90;46.80;;;;;;4987928;28;20933;-68
2022/09/16 12:37:06;;;;;;;1.80;1.10;;;17.60;47.50;;;;;;4983181;28;21063;-68
2022/09/16 12:39:31;;;;;;;1.80;1.10;;;17.70;45.20;;;;;;4981247;28;20939;-69
2022/09/16 12:42:02;;;;;;;1.83;1.10;;;18.00;44.20;;;;;;4982292;28;20532;-69
2022/09/16 12:44:37;;;;;;;1.90;1.10;;;17.80;42.90;;;;;;4979267;28;20326;-70
2022/09/16 12:47:48;;;;;;;1.80;1.10;;;17.90;43.20;;;;;;4984669;28;20425;-68
2022/09/16 12:50:20;;;;;;;1.73;1.00;;;17.90;44.60;;;;;;4990576;28;20841;-69
2022/09/16 12:53:16;;;;;;;1.90;1.13;;;17.90;45.50;;;;;;4991995;28;20409;-68
2022/09/16 12:56:00;;;;;;;1.87;1.10;;;17.70;44.70;;;;;;4992412;28;20411;-69
2022/09/16 12:58:44;;;;;;;1.80;1.00;;;17.30;44.50;;;;;;4992298;28;20461;-69
2022/09/16 13:01:47;;;;;;;1.80;1.00;;;17.10;45.80;;;;;;4991484;28;20978;-68
2022/09/16 13:04:22;;;;;;;1.80;1.10;;;17.10;45.40;;;;;;4990328;28;20422;-69
2022/09/16 13:06:54;;;;;;;1.80;1.07;;;17.00;47.20;;;;;;4991600;28;20401;-69
2022/09/16 13:09:26;;;;;;;1.80;1.10;;;17.00;46.20;;;;;;4990831;28;20547;-69